Weather observations for the past three days for
Evanston-Uinta County Airport - Burns Field
Imperial (Metric)
Date Time (mdt) Wind (mph) Vis. (mi.) Weather Sky Cond. Temperature (ºF) Relative Humidity Wind Chill (°F) Heat Index (°F) Pressure Precipitation (in)
Air Dwpt 6 hour altimeter (in) sea level (mb) 1 hr 3 hr 6 hr
Max. Min.
04 12:53 NE 10 10.00 Overcast BKN095 OVC120 57.9 23 26% 29.9 1005.5
04 11:53 SW 10 G 18 10.00 Mostly Cloudy BKN090 BKN110 62.1 24.1 64 35.1 23% 29.91 1005.3
04 10:53 SW 8 10.00 Fair CLR 59 27 29% 29.92 1005.6
04 09:53 SW 7 10.00 Fair CLR 55.9 27 33% 29.93 1006.1
04 08:53 S 8 10.00 Fair CLR 48.9 23 36% 46 29.94 1007.6
04 07:53 S 5 10.00 Mostly Cloudy BKN110 44.1 21 40% 42 29.95 1008.3
04 06:53 S 9 10.00 Fair CLR 37.9 19.9 48% 32 29.94 1008.0
04 05:53 SW 8 10.00 Fair CLR 35.1 19.9 48.9 32 54% 29 29.93 1007.4
04 04:53 E 3 10.00 A Few Clouds FEW120 46.9 19.9 34% 29.93 1006.1
04 03:53 N 5 10.00 Fair CLR 42.1 19 40% 40 29.93 1006.7
04 02:53 SE 6 10.00 Fair CLR 45 17.1 33% 42 29.94 1006.9
04 00:53 SE 6 10.00 Overcast OVC110 46.9 18 31% 45 29.97 1007.6
03 23:53 SE 3 10.00 Fair CLR 48.9 15.1 64 48 26% 29.98 1007.9
03 22:53 NE 3 10.00 Fair CLR 52 15.1 23% 29.98 1007.8
03 21:53 N 5 10.00 Fair CLR 53.1 15.1 22% 29.98 1008.1
03 20:53 NW 7 10.00 Fair CLR 52 15.1 23% 29.98 1008.8
03 19:53 NW 8 10.00 Fair CLR 55.9 17.1 22% 29.97 1008.9
03 18:53 NW 8 10.00 Fair CLR 60.1 14 16% 29.99 1009.4
03 17:53 W 13 G 24 10.00 Fair CLR 64 15.1 66 60.1 15% 29.99 1009.5
03 16:53 W 13 G 20 10.00 Partly Cloudy SCT110 63 15.1 15% 30 1009.8
03 15:53 W 14 10.00 A Few Clouds FEW120 63 12.9 14% 30.02 1009.8
03 14:53 W 15 G 22 10.00 Mostly Cloudy BKN120 62.1 12 14% 30.04 1010.8
03 13:53 Calm 10.00 Partly Cloudy SCT110 62.1 14 15% 30.06 1011.5
03 12:53 Vrbl 3 10.00 Overcast OVC110 62.1 14 15% 30.08 1012.3
03 11:53 Vrbl 3 10.00 Fair CLR 60.1 12.9 62.1 37.9 16% 30.1 1012.4
03 10:53 N 3 10.00 Fair CLR 60.1 7 12% 30.12 1013.0
03 09:53 SW 7 10.00 Fair CLR 55.9 19 24% 30.13 1013.6
03 08:53 SW 6 10.00 Fair CLR 48.9 21 33% 47 30.14 1015.0
03 07:53 S 6 10.00 Fair CLR 43 19 38% 40 30.13 1015.2
03 06:53 S 6 10.00 Fair CLR 39.9 18 41% 36 30.12 1014.2
03 05:53 SE 8 10.00 Fair CLR 37.9 18 46.9 37.9 44% 33 30.12 1014.1
03 04:53 SE 6 10.00 Fair CLR 37.9 18 44% 34 30.13 1014.4
03 03:53 S 5 10.00 Fair CLR 42.1 18 38% 40 30.14 1014.3
03 02:53 SE 7 10.00 Fair CLR 41 18 39% 37 30.14 1014.3
03 01:53 SE 8 10.00 Fair CLR 41 18 39% 36 30.14 1015.0
03 00:53 SE 9 10.00 Fair CLR 42.1 19 40% 37 30.15 1015.3
02 23:53 SE 6 10.00 Fair CLR 46.9 17.1 62.1 46 30% 45 30.16 1015.0
02 22:53 SE 6 10.00 Fair CLR 46.9 18 31% 45 30.16 1015.3
02 21:53 N 7 10.00 Fair CLR 48.9 18 29% 46 30.15 1015.3
02 20:53 NW 8 10.00 Fair CLR 48.9 17.1 28% 46 30.14 1015.8
02 19:53 W 9 10.00 Fair CLR 53.1 19 26% 30.13 1015.5
02 18:53 NW 10 10.00 Fair CLR 59 18 20% 30.12 1015.2
02 17:53 W 12 10.00 Fair CLR 61 16 64 55.9 17% 30.12 1015.3
02 16:53 SW 9 G 24 10.00 Fair CLR 63 12.9 14% 30.13 1014.4
02 15:53 SW 10 G 22 10.00 Fair CLR 62.1 10.9 13% 30.16 1015.7
02 14:53 NW 8 10.00 Fair CLR 62.1 12 14% 30.18 1016.6
02 13:53 Vrbl 3 10.00 Fair CLR 59 10.9 15% 30.2 1017.0
02 12:53 Calm 10.00 Fair CLR 57 10.9 16% 30.22 1018.3
02 11:53 Vrbl 6 10.00 Fair CLR 57 12 57.9 32 17% 30.24 1019.1
02 10:53 SW 8 G 16 10.00 Fair CLR 55 14 20% 30.25 1018.9
02 09:53 SW 6 10.00 Fair CLR 50 12.9 22% 48 30.25 1019.8
02 08:53 Vrbl 3 10.00 Fair CLR 45 17.1 33% 30.25 1020.0
02 07:53 SE 5 10.00 Fair CLR 39 14 36% 36 30.25 1020.3
02 06:53 SE 7 10.00 Fair CLR 34 12 40% 29 30.24 1020.3
02 05:53 SE 5 10.00 Fair CLR 33.1 12 43 33.1 42% 29 30.24 1019.8
02 04:53 S 5 10.00 Fair CLR 37.9 10.9 33% 35 30.24 1019.5
02 03:53 SE 6 10.00 Fair CLR 35.1 12.9 40% 31 30.23 1019.6
02 02:53 SE 7 10.00 Fair CLR 36 12 37% 31 30.23 1019.6
02 01:53 E 9 10.00 Fair CLR 39.9 10.9 30% 34 30.24 1019.8
02 00:53 S 5 10.00 Fair CLR 37.9 10 31% 35 30.24 1020.2
01 23:53 NE 3 10.00 Fair CLR 37.9 12.9 55.9 37.9 36% 30.23 1020.3
01 22:53 S 5 10.00 Fair CLR 43 9 25% 41 30.23 1019.7
01 21:53 E 6 10.00 Fair CLR 44.1 10 25% 41 30.22 1019.4
01 20:53 E 8 10.00 Fair CLR 46 10 23% 42 30.19 1019.2
01 19:53 E 9 10.00 Fair CLR 51.1 10.9 20% 30.18 1018.8
01 18:53 E 12 10.00 Fair CLR 54 8.1 16% 30.17 1018.5
01 17:53 NE 12 G 23 10.00 Fair CLR 55.9 8.1 55.9 46.9 14% 30.18 1018.2
01 16:53 Calm 10.00 Fair CLR 54 8.1 16% 30.18 1018.6
01 15:53 NE 9 G 17 10.00 Fair CLR 55 9 16% 30.19 1018.8
01 14:53 NE 9 G 21 10.00 Fair CLR 53.1 8.1 16% 30.2 1019.2
01 13:53 Calm 10.00 Fair CLR 50 7 17% 30.21 1020.0
Date Time (mdt) Wind (mph) Vis. (mi.) Weather Sky Cond. Air Dwpt Max. Min. Relative Humidity Wind Chill (°F) Heat Index (°F) altimeter (in) sea level (mb) 1 hr 3 hr 6 hr
6 hour
Temperature (ºF) Pressure Precipitation (in)